FDX612 KMEM-CYWG
Flight info
| Callsign | FDX612 |
|---|---|
| Flight time | 2h 21m |
| Altitude | 36000 |
| Route | JTEEE5 ODATE DCT FTZ DCT CID DCT RST DCT KP09G DCT BIPKU NORAK6 |
| Aircraft | A306/H-SDE3FGHIRWY/LB1 |
Departure
| Time | 2026-05-06 16:42 |
|---|---|
| Airport | Memphis International Airport (KMEM) |
Arrival
| Time | 2026-05-06 19:04 |
|---|---|
| Airport | Winnipeg / James Armstrong Richardson International Airport (CYWG) |
| Time | Latitude | Longitude | Altitude | Speed | Heading |
|---|---|---|---|---|---|
| 2026-05-06 16:18 | 35.05964 | -89.95775 | 333 ft | 0 kts | 181° |
| 2026-05-06 16:35 | 35.05967 | -89.95775 | 332 ft | 3 kts | 181° |
| 2026-05-06 16:36 | 35.05994 | -89.95774 | 333 ft | 4 kts | 181° |
| 2026-05-06 16:36 | 35.06007 | -89.95774 | 332 ft | 3 kts | 180° |
| 2026-05-06 16:36 | 35.06027 | -89.95780 | 331 ft | 4 kts | 112° |
| 2026-05-06 16:36 | 35.06030 | -89.95808 | 333 ft | 4 kts | 92° |
| 2026-05-06 16:37 | 35.06031 | -89.95820 | 331 ft | 2 kts | 92° |
| 2026-05-06 16:39 | 35.06030 | -89.95811 | 334 ft | 5 kts | 92° |
| 2026-05-06 16:39 | 35.06028 | -89.95710 | 333 ft | 15 kts | 91° |
| 2026-05-06 16:39 | 35.06025 | -89.95591 | 333 ft | 12 kts | 93° |
| 2026-05-06 16:39 | 35.05982 | -89.95540 | 332 ft | 8 kts | 166° |
| 2026-05-06 16:40 | 35.05942 | -89.95544 | 335 ft | 5 kts | 190° |
| 2026-05-06 16:40 | 35.05906 | -89.95560 | 334 ft | 9 kts | 201° |
| 2026-05-06 16:40 | 35.05886 | -89.95569 | 334 ft | 0 kts | 201° |
| 2026-05-06 16:41 | 35.05874 | -89.95575 | 332 ft | 7 kts | 201° |
| 2026-05-06 16:41 | 35.05798 | -89.95613 | 333 ft | 14 kts | 213° |
| 2026-05-06 16:41 | 35.05779 | -89.95701 | 337 ft | 8 kts | 272° |
| 2026-05-06 16:41 | 35.05781 | -89.95768 | 335 ft | 17 kts | 272° |
| 2026-05-06 16:42 | 35.05794 | -89.96189 | 339 ft | 84 kts | 272° |
| 2026-05-06 16:42 | 35.05823 | -89.97157 | 331 ft | 141 kts | 272° |
| 2026-05-06 16:42 | 35.05848 | -89.98493 | 670 ft | 167 kts | 274° |
| 2026-05-06 16:42 | 35.05866 | -89.99892 | 1540 ft | 165 kts | 276° |
| 2026-05-06 16:43 | 35.05905 | -90.01418 | 1903 ft | 197 kts | 276° |
| 2026-05-06 16:43 | 35.05924 | -90.03253 | 2177 ft | 234 kts | 273° |
| 2026-05-06 16:43 | 35.06160 | -90.05292 | 2804 ft | 249 kts | 290° |
| 2026-05-06 16:43 | 35.07101 | -90.07060 | 3725 ft | 254 kts | 316° |
| 2026-05-06 16:44 | 35.08715 | -90.07954 | 4526 ft | 265 kts | 348° |
| 2026-05-06 16:44 | 35.10593 | -90.07923 | 5446 ft | 274 kts | 357° |
| 2026-05-06 16:44 | 35.12515 | -90.07746 | 6365 ft | 280 kts | 358° |
| 2026-05-06 16:44 | 35.14465 | -90.07567 | 7284 ft | 283 kts | 357° |
| 2026-05-06 16:45 | 35.16442 | -90.07369 | 8206 ft | 287 kts | 358° |
| 2026-05-06 16:45 | 35.18446 | -90.07175 | 9150 ft | 290 kts | 356° |
| 2026-05-06 16:45 | 35.20476 | -90.07023 | 10073 ft | 294 kts | 356° |
| 2026-05-06 16:45 | 35.22571 | -90.06875 | 10605 ft | 312 kts | 355° |
| 2026-05-06 16:46 | 35.24816 | -90.06711 | 10945 ft | 334 kts | 356° |
| 2026-05-06 16:46 | 35.27206 | -90.06529 | 11255 ft | 354 kts | 356° |
| 2026-05-06 16:46 | 35.29722 | -90.06330 | 11547 ft | 372 kts | 356° |
| 2026-05-06 16:46 | 35.32366 | -90.06116 | 11827 ft | 389 kts | 357° |
| 2026-05-06 16:47 | 35.35114 | -90.05891 | 12207 ft | 401 kts | 357° |
| 2026-05-06 16:47 | 35.37923 | -90.05659 | 12705 ft | 408 kts | 356° |
| 2026-05-06 16:47 | 35.40770 | -90.05423 | 13223 ft | 414 kts | 356° |
| 2026-05-06 16:47 | 35.43665 | -90.05186 | 13754 ft | 419 kts | 356° |
| 2026-05-06 16:48 | 35.46596 | -90.04946 | 14240 ft | 424 kts | 356° |
| 2026-05-06 16:48 | 35.49555 | -90.04703 | 14775 ft | 427 kts | 355° |
| 2026-05-06 16:48 | 35.52525 | -90.04459 | 15381 ft | 429 kts | 355° |
| 2026-05-06 16:48 | 35.55515 | -90.04214 | 15958 ft | 432 kts | 354° |
| 2026-05-06 16:49 | 35.58525 | -90.03970 | 16492 ft | 436 kts | 354° |
| 2026-05-06 16:49 | 35.61527 | -90.03729 | 17042 ft | 439 kts | 354° |
| 2026-05-06 16:49 | 35.64564 | -90.03730 | 17603 ft | 435 kts | 347° |
| 2026-05-06 16:49 | 35.67552 | -90.03959 | 18107 ft | 437 kts | 345° |
| 2026-05-06 16:50 | 35.70603 | -90.04231 | 18587 ft | 441 kts | 345° |
| 2026-05-06 16:50 | 35.73667 | -90.04505 | 19047 ft | 443 kts | 345° |
| 2026-05-06 16:50 | 35.76751 | -90.04798 | 19523 ft | 443 kts | 343° |
| 2026-05-06 16:50 | 35.79775 | -90.05374 | 19968 ft | 438 kts | 338° |
| 2026-05-06 16:51 | 35.82756 | -90.06162 | 20417 ft | 437 kts | 335° |
| 2026-05-06 16:51 | 35.85712 | -90.07056 | 20853 ft | 438 kts | 334° |
| 2026-05-06 16:51 | 35.88671 | -90.07998 | 21301 ft | 440 kts | 334° |
| 2026-05-06 16:51 | 35.91642 | -90.08954 | 21749 ft | 443 kts | 334° |
| 2026-05-06 16:52 | 35.94630 | -90.09907 | 22196 ft | 446 kts | 334° |
| 2026-05-06 16:52 | 35.97648 | -90.10855 | 22633 ft | 448 kts | 334° |
| 2026-05-06 16:52 | 36.00682 | -90.11796 | 23033 ft | 451 kts | 334° |
| 2026-05-06 16:52 | 36.03737 | -90.12736 | 23451 ft | 454 kts | 334° |
| 2026-05-06 16:53 | 36.06811 | -90.13678 | 23801 ft | 456 kts | 334° |
| 2026-05-06 16:53 | 36.09902 | -90.14624 | 24102 ft | 459 kts | 334° |
| 2026-05-06 16:53 | 36.13008 | -90.15576 | 24402 ft | 461 kts | 334° |
| 2026-05-06 16:53 | 36.16133 | -90.16534 | 24701 ft | 463 kts | 334° |
| 2026-05-06 16:54 | 36.19266 | -90.17496 | 24998 ft | 465 kts | 334° |
| 2026-05-06 16:54 | 36.22416 | -90.18464 | 25280 ft | 467 kts | 334° |
| 2026-05-06 16:54 | 36.25579 | -90.19438 | 25598 ft | 469 kts | 334° |
| 2026-05-06 16:54 | 36.28752 | -90.20415 | 25864 ft | 471 kts | 334° |
| 2026-05-06 16:55 | 36.31943 | -90.21400 | 26111 ft | 473 kts | 334° |
| 2026-05-06 16:55 | 36.35149 | -90.22390 | 26355 ft | 475 kts | 334° |
| 2026-05-06 16:55 | 36.38360 | -90.23383 | 26604 ft | 477 kts | 334° |
| 2026-05-06 16:55 | 36.41592 | -90.24382 | 26837 ft | 479 kts | 334° |
| 2026-05-06 16:56 | 36.44830 | -90.25383 | 27097 ft | 480 kts | 334° |
| 2026-05-06 16:56 | 36.48069 | -90.26384 | 27445 ft | 479 kts | 334° |
| 2026-05-06 16:56 | 36.51300 | -90.27381 | 27875 ft | 478 kts | 333° |
| 2026-05-06 16:56 | 36.54503 | -90.28366 | 28465 ft | 471 kts | 333° |
| 2026-05-06 16:57 | 36.57674 | -90.29343 | 28923 ft | 469 kts | 333° |
| 2026-05-06 16:57 | 36.60834 | -90.30325 | 29268 ft | 468 kts | 332° |
| 2026-05-06 16:57 | 36.63998 | -90.31314 | 29624 ft | 468 kts | 332° |
| 2026-05-06 16:57 | 36.67149 | -90.32300 | 29996 ft | 467 kts | 332° |
| 2026-05-06 16:58 | 36.70297 | -90.33284 | 30346 ft | 466 kts | 332° |
| 2026-05-06 16:58 | 36.73438 | -90.34264 | 30700 ft | 464 kts | 332° |
| 2026-05-06 16:58 | 36.76562 | -90.35237 | 31172 ft | 461 kts | 331° |
| 2026-05-06 16:58 | 36.79650 | -90.36195 | 31687 ft | 456 kts | 330° |
| 2026-05-06 16:59 | 36.82725 | -90.37152 | 32067 ft | 454 kts | 330° |
| 2026-05-06 16:59 | 36.85781 | -90.38110 | 32408 ft | 453 kts | 330° |
| 2026-05-06 16:59 | 36.88839 | -90.39073 | 32708 ft | 453 kts | 329° |
| 2026-05-06 16:59 | 36.91900 | -90.40040 | 32968 ft | 454 kts | 329° |
| 2026-05-06 17:00 | 36.94957 | -90.41004 | 33298 ft | 453 kts | 329° |
| 2026-05-06 17:00 | 36.98015 | -90.41965 | 33623 ft | 453 kts | 329° |
| 2026-05-06 17:00 | 37.01066 | -90.42922 | 34016 ft | 452 kts | 328° |
| 2026-05-06 17:00 | 37.04120 | -90.43884 | 34251 ft | 453 kts | 328° |
| 2026-05-06 17:01 | 37.07176 | -90.44846 | 34551 ft | 452 kts | 328° |
| 2026-05-06 17:01 | 37.10215 | -90.45800 | 34885 ft | 449 kts | 328° |
| 2026-05-06 17:01 | 37.13244 | -90.46751 | 35199 ft | 448 kts | 328° |
| 2026-05-06 17:01 | 37.16261 | -90.47700 | 35514 ft | 446 kts | 328° |
| 2026-05-06 17:02 | 37.19226 | -90.48636 | 35801 ft | 445 kts | 328° |
| 2026-05-06 17:02 | 37.22271 | -90.49600 | 36032 ft | 445 kts | 328° |
| 2026-05-06 17:02 | 37.25229 | -90.50540 | 36108 ft | 444 kts | 328° |
| 2026-05-06 17:03 | 37.31227 | -90.52435 | 36072 ft | 440 kts | 327° |
| 2026-05-06 17:03 | 37.37116 | -90.54308 | 36074 ft | 440 kts | 327° |
| 2026-05-06 17:04 | 37.43042 | -90.56196 | 36074 ft | 440 kts | 327° |
| 2026-05-06 17:04 | 37.48974 | -90.58089 | 36104 ft | 440 kts | 327° |
| 2026-05-06 17:05 | 37.54905 | -90.59979 | 36079 ft | 439 kts | 327° |
| 2026-05-06 17:05 | 37.60829 | -90.61870 | 36081 ft | 439 kts | 327° |
| 2026-05-06 17:06 | 37.66745 | -90.63762 | 36080 ft | 439 kts | 327° |
| 2026-05-06 17:06 | 37.72665 | -90.65661 | 36127 ft | 439 kts | 327° |
| 2026-05-06 17:07 | 37.78580 | -90.67557 | 36080 ft | 438 kts | 327° |
| 2026-05-06 17:07 | 37.84484 | -90.69455 | 36078 ft | 438 kts | 327° |
| 2026-05-06 17:08 | 37.90386 | -90.71359 | 36077 ft | 438 kts | 327° |
| 2026-05-06 17:08 | 37.96290 | -90.73263 | 36110 ft | 438 kts | 327° |
| 2026-05-06 17:09 | 38.02196 | -90.75169 | 36073 ft | 437 kts | 327° |
| 2026-05-06 17:09 | 38.08086 | -90.77075 | 36079 ft | 437 kts | 327° |
| 2026-05-06 17:10 | 38.13981 | -90.78988 | 36069 ft | 438 kts | 327° |
| 2026-05-06 17:10 | 38.19895 | -90.80910 | 36106 ft | 438 kts | 326° |
| 2026-05-06 17:11 | 38.25800 | -90.82829 | 36071 ft | 438 kts | 326° |
| 2026-05-06 17:11 | 38.31697 | -90.84748 | 36070 ft | 438 kts | 326° |
| 2026-05-06 17:12 | 38.37596 | -90.86675 | 36075 ft | 438 kts | 326° |
| 2026-05-06 17:12 | 38.43497 | -90.88605 | 36077 ft | 437 kts | 326° |
| 2026-05-06 17:13 | 38.49392 | -90.90535 | 36077 ft | 437 kts | 326° |
| 2026-05-06 17:13 | 38.55285 | -90.92467 | 36080 ft | 437 kts | 326° |
| 2026-05-06 17:14 | 38.61177 | -90.94404 | 36102 ft | 437 kts | 326° |
| 2026-05-06 17:14 | 38.67065 | -90.96343 | 36123 ft | 437 kts | 326° |
| 2026-05-06 17:15 | 38.73042 | -90.98119 | 36071 ft | 445 kts | 329° |
| 2026-05-06 17:15 | 38.79147 | -90.99590 | 36072 ft | 448 kts | 330° |
| 2026-05-06 17:16 | 38.85286 | -91.01019 | 36063 ft | 447 kts | 330° |
| 2026-05-06 17:16 | 38.91395 | -91.02479 | 36084 ft | 446 kts | 330° |
| 2026-05-06 17:17 | 38.97488 | -91.03964 | 36078 ft | 446 kts | 330° |
| 2026-05-06 17:17 | 39.03581 | -91.05464 | 36079 ft | 446 kts | 330° |
| 2026-05-06 17:18 | 39.09673 | -91.06965 | 36078 ft | 446 kts | 330° |
| 2026-05-06 17:18 | 39.15769 | -91.08467 | 36084 ft | 445 kts | 330° |
| 2026-05-06 17:19 | 39.21841 | -91.09960 | 36081 ft | 444 kts | 330° |
| 2026-05-06 17:19 | 39.27908 | -91.11460 | 36080 ft | 444 kts | 330° |
| 2026-05-06 17:20 | 39.33944 | -91.12956 | 36078 ft | 444 kts | 330° |
| 2026-05-06 17:20 | 39.40014 | -91.14462 | 36137 ft | 444 kts | 330° |
| 2026-05-06 17:21 | 39.46080 | -91.15970 | 36182 ft | 445 kts | 330° |
| 2026-05-06 17:21 | 39.52162 | -91.17485 | 36219 ft | 445 kts | 330° |
| 2026-05-06 17:22 | 39.58245 | -91.19000 | 36298 ft | 445 kts | 330° |
| 2026-05-06 17:22 | 39.63299 | -91.20260 | 36259 ft | 445 kts | 330° |
| 2026-05-06 17:23 | 39.69381 | -91.21782 | 36271 ft | 445 kts | 330° |
| 2026-05-06 17:23 | 39.75462 | -91.23306 | 36236 ft | 445 kts | 330° |
| 2026-05-06 17:23 | 39.78505 | -91.24070 | 36098 ft | 445 kts | 330° |
| 2026-05-06 17:24 | 39.81550 | -91.24835 | 36120 ft | 446 kts | 331° |
| 2026-05-06 17:24 | 39.87631 | -91.26363 | 36100 ft | 445 kts | 331° |
| 2026-05-06 17:25 | 39.93709 | -91.27893 | 36101 ft | 445 kts | 331° |
| 2026-05-06 17:25 | 39.99790 | -91.29428 | 36099 ft | 445 kts | 331° |
| 2026-05-06 17:26 | 40.05865 | -91.30965 | 36103 ft | 445 kts | 331° |
| 2026-05-06 17:26 | 40.11947 | -91.32506 | 36086 ft | 445 kts | 331° |
| 2026-05-06 17:27 | 40.18032 | -91.34049 | 36093 ft | 445 kts | 331° |
| 2026-05-06 17:27 | 40.24114 | -91.35593 | 36107 ft | 445 kts | 331° |
| 2026-05-06 17:28 | 40.30202 | -91.37145 | 36113 ft | 446 kts | 332° |
| 2026-05-06 17:28 | 40.36294 | -91.38701 | 36119 ft | 446 kts | 332° |
| 2026-05-06 17:29 | 40.42386 | -91.40258 | 36118 ft | 446 kts | 332° |
| 2026-05-06 17:29 | 40.48481 | -91.41819 | 36136 ft | 446 kts | 332° |
| 2026-05-06 17:30 | 40.54541 | -91.43375 | 36118 ft | 447 kts | 332° |
| 2026-05-06 17:30 | 40.60648 | -91.44944 | 36109 ft | 447 kts | 332° |
| 2026-05-06 17:31 | 40.66756 | -91.46516 | 36105 ft | 447 kts | 332° |
| 2026-05-06 17:31 | 40.72864 | -91.48091 | 36109 ft | 447 kts | 332° |
| 2026-05-06 17:32 | 40.78968 | -91.49669 | 36115 ft | 447 kts | 332° |
| 2026-05-06 17:32 | 40.85074 | -91.51249 | 36118 ft | 447 kts | 332° |
| 2026-05-06 17:33 | 40.91179 | -91.52834 | 36172 ft | 447 kts | 333° |
| 2026-05-06 17:33 | 40.97300 | -91.54432 | 36118 ft | 450 kts | 333° |
| 2026-05-06 17:34 | 41.03451 | -91.56035 | 36121 ft | 451 kts | 333° |
| 2026-05-06 17:34 | 41.09601 | -91.57635 | 36117 ft | 451 kts | 333° |
| 2026-05-06 17:35 | 41.15768 | -91.59193 | 36106 ft | 455 kts | 337° |
| 2026-05-06 17:35 | 41.21964 | -91.60674 | 36099 ft | 450 kts | 334° |
| 2026-05-06 17:36 | 41.31160 | -91.63257 | 36108 ft | 451 kts | 334° |
| 2026-05-06 17:36 | 41.37315 | -91.64928 | 36104 ft | 451 kts | 335° |
| 2026-05-06 17:37 | 41.43546 | -91.66347 | 36113 ft | 455 kts | 337° |
| 2026-05-06 17:37 | 41.49727 | -91.67983 | 36118 ft | 451 kts | 334° |
| 2026-05-06 17:38 | 41.55866 | -91.69741 | 36156 ft | 452 kts | 335° |
| 2026-05-06 17:38 | 41.61989 | -91.71433 | 36117 ft | 453 kts | 336° |
| 2026-05-06 17:39 | 41.68184 | -91.73092 | 36115 ft | 454 kts | 336° |
| 2026-05-06 17:39 | 41.74381 | -91.74735 | 36100 ft | 454 kts | 336° |
| 2026-05-06 17:40 | 41.80584 | -91.76386 | 36102 ft | 455 kts | 337° |
| 2026-05-06 17:40 | 41.86797 | -91.78048 | 36101 ft | 455 kts | 336° |
| 2026-05-06 17:41 | 41.92820 | -91.80254 | 36101 ft | 447 kts | 332° |
| 2026-05-06 17:41 | 41.98761 | -91.82689 | 36120 ft | 446 kts | 332° |
| 2026-05-06 17:42 | 42.04698 | -91.85179 | 36097 ft | 448 kts | 332° |
| 2026-05-06 17:42 | 42.10644 | -91.87673 | 36093 ft | 448 kts | 332° |
| 2026-05-06 17:43 | 42.16597 | -91.90163 | 36093 ft | 448 kts | 332° |
| 2026-05-06 17:43 | 42.22561 | -91.92660 | 36114 ft | 449 kts | 332° |
| 2026-05-06 17:44 | 42.28523 | -91.95161 | 36110 ft | 449 kts | 332° |
| 2026-05-06 17:44 | 42.34487 | -91.97668 | 36117 ft | 449 kts | 332° |
| 2026-05-06 17:45 | 42.40449 | -92.00178 | 36134 ft | 449 kts | 332° |
| 2026-05-06 17:45 | 42.46414 | -92.02696 | 36119 ft | 449 kts | 332° |
| 2026-05-06 17:46 | 42.52373 | -92.05216 | 36117 ft | 449 kts | 332° |
| 2026-05-06 17:46 | 42.58337 | -92.07744 | 36092 ft | 449 kts | 332° |
| 2026-05-06 17:47 | 42.64295 | -92.10274 | 36091 ft | 448 kts | 333° |
| 2026-05-06 17:47 | 42.70244 | -92.12804 | 36093 ft | 448 kts | 333° |
| 2026-05-06 17:48 | 42.76183 | -92.15337 | 36094 ft | 448 kts | 333° |
| 2026-05-06 17:48 | 42.82088 | -92.17860 | 36097 ft | 448 kts | 333° |
| 2026-05-06 17:49 | 42.88071 | -92.20420 | 36099 ft | 448 kts | 333° |
| 2026-05-06 17:49 | 42.93970 | -92.22951 | 36102 ft | 448 kts | 333° |
| 2026-05-06 17:50 | 42.99948 | -92.25521 | 36124 ft | 448 kts | 333° |
| 2026-05-06 17:50 | 43.05889 | -92.28080 | 36098 ft | 448 kts | 333° |
| 2026-05-06 17:51 | 43.11793 | -92.30628 | 36102 ft | 448 kts | 333° |
| 2026-05-06 17:51 | 43.17738 | -92.33198 | 36101 ft | 448 kts | 333° |
| 2026-05-06 17:52 | 43.23683 | -92.35775 | 36106 ft | 448 kts | 333° |
| 2026-05-06 17:52 | 43.29638 | -92.38361 | 36103 ft | 449 kts | 333° |
| 2026-05-06 17:53 | 43.35597 | -92.40953 | 36105 ft | 449 kts | 333° |
| 2026-05-06 17:53 | 43.41551 | -92.43549 | 36131 ft | 449 kts | 334° |
| 2026-05-06 17:54 | 43.47506 | -92.46152 | 36107 ft | 449 kts | 334° |
| 2026-05-06 17:54 | 43.53468 | -92.48763 | 36105 ft | 450 kts | 334° |
| 2026-05-06 17:55 | 43.59432 | -92.51379 | 36098 ft | 450 kts | 334° |
| 2026-05-06 17:55 | 43.65392 | -92.53999 | 36102 ft | 449 kts | 334° |
| 2026-05-06 17:56 | 43.71348 | -92.56623 | 36097 ft | 449 kts | 334° |
| 2026-05-06 17:56 | 43.77310 | -92.59255 | 36095 ft | 449 kts | 334° |
| 2026-05-06 17:57 | 43.83216 | -92.62037 | 36092 ft | 448 kts | 333° |
| 2026-05-06 17:57 | 43.89079 | -92.64952 | 36100 ft | 448 kts | 333° |
| 2026-05-06 17:58 | 43.94938 | -92.67875 | 36095 ft | 448 kts | 333° |
| 2026-05-06 17:58 | 44.00801 | -92.70786 | 36121 ft | 447 kts | 333° |
| 2026-05-06 17:59 | 44.06663 | -92.73691 | 36102 ft | 448 kts | 333° |
| 2026-05-06 17:59 | 44.12497 | -92.76586 | 36109 ft | 448 kts | 333° |
| 2026-05-06 18:00 | 44.18403 | -92.79524 | 36118 ft | 448 kts | 333° |
| 2026-05-06 18:00 | 44.24229 | -92.82429 | 36103 ft | 448 kts | 334° |
| 2026-05-06 18:01 | 44.30096 | -92.85360 | 36106 ft | 448 kts | 334° |
| 2026-05-06 18:01 | 44.35957 | -92.88295 | 36104 ft | 448 kts | 334° |
| 2026-05-06 18:02 | 44.41819 | -92.91237 | 36097 ft | 448 kts | 334° |
| 2026-05-06 18:02 | 44.47683 | -92.94186 | 36098 ft | 448 kts | 334° |
| 2026-05-06 18:03 | 44.53542 | -92.97140 | 36097 ft | 448 kts | 334° |
| 2026-05-06 18:03 | 44.59404 | -93.00100 | 36112 ft | 448 kts | 334° |
| 2026-05-06 18:04 | 44.65265 | -93.03065 | 36102 ft | 448 kts | 334° |
| 2026-05-06 18:04 | 44.71129 | -93.06040 | 36102 ft | 448 kts | 335° |
| 2026-05-06 18:05 | 44.76982 | -93.09014 | 36091 ft | 447 kts | 335° |
| 2026-05-06 18:05 | 44.82827 | -93.11991 | 36088 ft | 447 kts | 335° |
| 2026-05-06 18:06 | 44.88672 | -93.14975 | 36092 ft | 447 kts | 334° |
| 2026-05-06 18:06 | 44.94510 | -93.17962 | 36091 ft | 447 kts | 334° |
| 2026-05-06 18:07 | 45.00350 | -93.20957 | 36094 ft | 447 kts | 335° |
| 2026-05-06 18:07 | 45.06202 | -93.23963 | 36091 ft | 447 kts | 335° |
| 2026-05-06 18:08 | 45.12043 | -93.26971 | 36081 ft | 447 kts | 335° |
| 2026-05-06 18:08 | 45.17857 | -93.29971 | 36085 ft | 447 kts | 335° |
| 2026-05-06 18:09 | 45.23693 | -93.32990 | 36083 ft | 448 kts | 335° |
| 2026-05-06 18:09 | 45.29553 | -93.36028 | 36085 ft | 448 kts | 335° |
| 2026-05-06 18:10 | 45.35403 | -93.39068 | 36095 ft | 448 kts | 335° |
| 2026-05-06 18:10 | 45.41251 | -93.42113 | 36093 ft | 448 kts | 335° |
| 2026-05-06 18:11 | 45.46113 | -93.44649 | 36085 ft | 448 kts | 335° |
| 2026-05-06 18:11 | 45.52961 | -93.48229 | 36103 ft | 448 kts | 335° |
| 2026-05-06 18:12 | 45.57829 | -93.50781 | 36082 ft | 448 kts | 335° |
| 2026-05-06 18:12 | 45.63684 | -93.53855 | 36082 ft | 448 kts | 335° |
| 2026-05-06 18:13 | 45.69539 | -93.56936 | 36085 ft | 449 kts | 335° |
| 2026-05-06 18:13 | 45.75401 | -93.60027 | 36097 ft | 449 kts | 336° |
| 2026-05-06 18:14 | 45.81256 | -93.63123 | 36099 ft | 449 kts | 336° |
| 2026-05-06 18:14 | 45.87110 | -93.66224 | 36097 ft | 449 kts | 336° |
| 2026-05-06 18:15 | 45.92968 | -93.69335 | 36101 ft | 449 kts | 336° |
| 2026-05-06 18:15 | 45.98824 | -93.72451 | 36090 ft | 449 kts | 336° |
| 2026-05-06 18:16 | 46.04679 | -93.75575 | 36092 ft | 449 kts | 336° |
| 2026-05-06 18:16 | 46.10536 | -93.78706 | 36091 ft | 449 kts | 336° |
| 2026-05-06 18:17 | 46.16387 | -93.81842 | 36087 ft | 449 kts | 336° |
| 2026-05-06 18:17 | 46.22246 | -93.84988 | 36081 ft | 449 kts | 336° |
| 2026-05-06 18:18 | 46.28101 | -93.88139 | 36076 ft | 449 kts | 336° |
| 2026-05-06 18:18 | 46.33953 | -93.91297 | 36072 ft | 449 kts | 336° |
| 2026-05-06 18:19 | 46.39806 | -93.94462 | 36068 ft | 449 kts | 336° |
| 2026-05-06 18:19 | 46.45615 | -93.97610 | 36088 ft | 449 kts | 336° |
| 2026-05-06 18:20 | 46.51465 | -94.00812 | 36091 ft | 449 kts | 336° |
| 2026-05-06 18:20 | 46.57286 | -94.04093 | 36071 ft | 448 kts | 336° |
| 2026-05-06 18:21 | 46.63093 | -94.07377 | 36065 ft | 448 kts | 336° |
| 2026-05-06 18:21 | 46.68893 | -94.10663 | 36056 ft | 447 kts | 336° |
| 2026-05-06 18:22 | 46.74697 | -94.13958 | 36051 ft | 447 kts | 336° |
| 2026-05-06 18:22 | 46.80497 | -94.17258 | 36050 ft | 447 kts | 336° |
| 2026-05-06 18:23 | 46.86293 | -94.20563 | 36045 ft | 447 kts | 336° |
| 2026-05-06 18:23 | 46.92082 | -94.23873 | 36037 ft | 447 kts | 336° |
| 2026-05-06 18:24 | 46.97885 | -94.27197 | 36036 ft | 447 kts | 336° |
| 2026-05-06 18:24 | 47.03675 | -94.30522 | 36036 ft | 447 kts | 336° |
| 2026-05-06 18:25 | 47.09468 | -94.33857 | 36046 ft | 447 kts | 336° |
| 2026-05-06 18:25 | 47.15262 | -94.37200 | 36086 ft | 448 kts | 336° |
| 2026-05-06 18:26 | 47.21059 | -94.40552 | 36086 ft | 448 kts | 336° |
| 2026-05-06 18:26 | 47.26852 | -94.43911 | 36081 ft | 448 kts | 336° |
| 2026-05-06 18:27 | 47.32648 | -94.47278 | 36083 ft | 447 kts | 336° |
| 2026-05-06 18:27 | 47.38434 | -94.50648 | 36080 ft | 447 kts | 336° |
| 2026-05-06 18:28 | 47.44217 | -94.54024 | 36078 ft | 447 kts | 336° |
| 2026-05-06 18:28 | 47.50002 | -94.57410 | 36078 ft | 447 kts | 336° |
| 2026-05-06 18:29 | 47.55783 | -94.60801 | 36073 ft | 447 kts | 337° |
| 2026-05-06 18:29 | 47.61547 | -94.64190 | 36074 ft | 445 kts | 336° |
| 2026-05-06 18:30 | 47.67303 | -94.67582 | 36074 ft | 445 kts | 336° |
| 2026-05-06 18:30 | 47.73057 | -94.70982 | 36067 ft | 445 kts | 337° |
| 2026-05-06 18:31 | 47.78803 | -94.74384 | 36066 ft | 445 kts | 337° |
| 2026-05-06 18:31 | 47.84550 | -94.77796 | 36069 ft | 445 kts | 337° |
| 2026-05-06 18:32 | 47.90297 | -94.81215 | 36066 ft | 445 kts | 337° |
| 2026-05-06 18:32 | 47.96038 | -94.84640 | 36065 ft | 444 kts | 337° |
| 2026-05-06 18:33 | 48.01731 | -94.88044 | 36064 ft | 444 kts | 337° |
| 2026-05-06 18:33 | 48.07467 | -94.91481 | 36062 ft | 444 kts | 337° |
| 2026-05-06 18:34 | 48.13198 | -94.94925 | 36065 ft | 444 kts | 337° |
| 2026-05-06 18:34 | 48.18933 | -94.98378 | 36061 ft | 444 kts | 337° |
| 2026-05-06 18:35 | 48.24664 | -95.01838 | 36059 ft | 444 kts | 337° |
| 2026-05-06 18:35 | 48.30392 | -95.05304 | 36057 ft | 444 kts | 337° |
| 2026-05-06 18:36 | 48.36122 | -95.08780 | 36060 ft | 444 kts | 337° |
| 2026-05-06 18:36 | 48.41853 | -95.12265 | 36052 ft | 444 kts | 337° |
| 2026-05-06 18:37 | 48.47585 | -95.15759 | 36053 ft | 444 kts | 337° |
| 2026-05-06 18:37 | 48.53312 | -95.19258 | 36054 ft | 444 kts | 337° |
| 2026-05-06 18:38 | 48.59034 | -95.22764 | 36060 ft | 443 kts | 337° |
| 2026-05-06 18:38 | 48.64762 | -95.26281 | 36050 ft | 445 kts | 337° |
| 2026-05-06 18:39 | 48.70505 | -95.29817 | 36045 ft | 446 kts | 337° |
| 2026-05-06 18:40 | 48.79080 | -95.35111 | 36039 ft | 446 kts | 337° |
| 2026-05-06 18:40 | 48.84784 | -95.38643 | 35880 ft | 434 kts | 337° |
| 2026-05-06 18:40 | 48.87548 | -95.40358 | 35434 ft | 426 kts | 337° |
| 2026-05-06 18:41 | 48.90305 | -95.42071 | 34528 ft | 431 kts | 337° |
| 2026-05-06 18:41 | 48.93102 | -95.43812 | 33538 ft | 435 kts | 337° |
| 2026-05-06 18:41 | 48.95899 | -95.45554 | 32656 ft | 434 kts | 337° |
| 2026-05-06 18:41 | 48.98680 | -95.47288 | 31852 ft | 430 kts | 337° |
| 2026-05-06 18:42 | 49.01440 | -95.49011 | 31028 ft | 427 kts | 337° |
| 2026-05-06 18:42 | 49.04176 | -95.50721 | 30344 ft | 422 kts | 337° |
| 2026-05-06 18:42 | 49.06847 | -95.52454 | 29756 ft | 413 kts | 334° |
| 2026-05-06 18:42 | 49.09229 | -95.54786 | 29162 ft | 404 kts | 321° |
| 2026-05-06 18:43 | 49.11283 | -95.57639 | 28638 ft | 395 kts | 317° |
| 2026-05-06 18:43 | 49.13239 | -95.60548 | 28067 ft | 392 kts | 316° |
| 2026-05-06 18:43 | 49.15180 | -95.63458 | 27531 ft | 390 kts | 316° |
| 2026-05-06 18:43 | 49.17115 | -95.66356 | 26991 ft | 388 kts | 316° |
| 2026-05-06 18:44 | 49.19032 | -95.69226 | 26460 ft | 384 kts | 316° |
| 2026-05-06 18:44 | 49.20930 | -95.72067 | 25916 ft | 380 kts | 317° |
| 2026-05-06 18:44 | 49.22814 | -95.74886 | 25394 ft | 377 kts | 317° |
| 2026-05-06 18:44 | 49.24678 | -95.77678 | 24879 ft | 374 kts | 317° |
| 2026-05-06 18:45 | 49.26532 | -95.80457 | 24360 ft | 371 kts | 317° |
| 2026-05-06 18:45 | 49.28365 | -95.83208 | 23849 ft | 368 kts | 317° |
| 2026-05-06 18:45 | 49.30184 | -95.85940 | 23292 ft | 365 kts | 317° |
| 2026-05-06 18:45 | 49.31384 | -95.87745 | 22858 ft | 367 kts | 316° |
| 2026-05-06 18:46 | 49.33853 | -95.91456 | 21461 ft | 376 kts | 316° |
| 2026-05-06 18:46 | 49.35703 | -95.94243 | 20888 ft | 369 kts | 316° |
| 2026-05-06 18:46 | 49.37511 | -95.96972 | 20385 ft | 362 kts | 316° |
| 2026-05-06 18:46 | 49.39293 | -95.99663 | 19843 ft | 356 kts | 316° |
| 2026-05-06 18:47 | 49.41045 | -96.02313 | 19308 ft | 351 kts | 315° |
| 2026-05-06 18:47 | 49.42772 | -96.04927 | 18809 ft | 346 kts | 315° |
| 2026-05-06 18:47 | 49.44477 | -96.07509 | 18273 ft | 342 kts | 315° |
| 2026-05-06 18:47 | 49.46165 | -96.10069 | 17704 ft | 339 kts | 315° |
| 2026-05-06 18:48 | 49.47827 | -96.12592 | 17188 ft | 334 kts | 315° |
| 2026-05-06 18:48 | 49.49466 | -96.15084 | 16693 ft | 329 kts | 315° |
| 2026-05-06 18:48 | 49.51086 | -96.17550 | 16186 ft | 327 kts | 315° |
| 2026-05-06 18:48 | 49.52700 | -96.20007 | 15664 ft | 325 kts | 315° |
| 2026-05-06 18:49 | 49.54283 | -96.22420 | 15160 ft | 323 kts | 315° |
| 2026-05-06 18:49 | 49.55894 | -96.24878 | 14641 ft | 320 kts | 315° |
| 2026-05-06 18:49 | 49.57468 | -96.27280 | 14132 ft | 317 kts | 315° |
| 2026-05-06 18:49 | 49.59008 | -96.29635 | 13585 ft | 315 kts | 315° |
| 2026-05-06 18:50 | 49.60575 | -96.32032 | 13070 ft | 312 kts | 314° |
| 2026-05-06 18:50 | 49.62109 | -96.34382 | 12604 ft | 310 kts | 315° |
| 2026-05-06 18:50 | 49.63617 | -96.36694 | 12363 ft | 297 kts | 315° |
| 2026-05-06 18:50 | 49.65021 | -96.38848 | 12270 ft | 280 kts | 315° |
| 2026-05-06 18:51 | 49.66366 | -96.40913 | 12189 ft | 266 kts | 315° |
| 2026-05-06 18:51 | 49.67651 | -96.42888 | 12100 ft | 256 kts | 315° |
| 2026-05-06 18:51 | 49.68897 | -96.44805 | 11981 ft | 252 kts | 315° |
| 2026-05-06 18:51 | 49.70145 | -96.46729 | 11654 ft | 254 kts | 315° |
| 2026-05-06 18:52 | 49.71400 | -96.48661 | 11248 ft | 254 kts | 315° |
| 2026-05-06 18:52 | 49.72639 | -96.50674 | 11032 ft | 265 kts | 310° |
| 2026-05-06 18:52 | 49.73580 | -96.53167 | 10655 ft | 273 kts | 291° |
| 2026-05-06 18:52 | 49.73891 | -96.56060 | 10322 ft | 274 kts | 275° |
| 2026-05-06 18:53 | 49.73906 | -96.58998 | 10013 ft | 273 kts | 272° |
| 2026-05-06 18:53 | 49.73882 | -96.61928 | 9672 ft | 272 kts | 272° |
| 2026-05-06 18:53 | 49.73862 | -96.64842 | 9364 ft | 269 kts | 272° |
| 2026-05-06 18:53 | 49.73846 | -96.67675 | 9178 ft | 258 kts | 272° |
| 2026-05-06 18:54 | 49.73835 | -96.70408 | 8914 ft | 251 kts | 272° |
| 2026-05-06 18:54 | 49.73827 | -96.73076 | 8625 ft | 245 kts | 272° |
| 2026-05-06 18:54 | 49.73819 | -96.75688 | 8346 ft | 241 kts | 272° |
| 2026-05-06 18:54 | 49.73813 | -96.78274 | 8059 ft | 240 kts | 272° |
| 2026-05-06 18:55 | 49.73806 | -96.80839 | 7796 ft | 238 kts | 272° |
| 2026-05-06 18:55 | 49.73797 | -96.83383 | 7531 ft | 236 kts | 272° |
| 2026-05-06 18:55 | 49.73790 | -96.85906 | 7261 ft | 234 kts | 272° |
| 2026-05-06 18:55 | 49.73782 | -96.88404 | 7002 ft | 232 kts | 272° |
| 2026-05-06 18:56 | 49.73774 | -96.90881 | 6737 ft | 230 kts | 272° |
| 2026-05-06 18:56 | 49.73765 | -96.93341 | 6475 ft | 228 kts | 272° |
| 2026-05-06 18:56 | 49.73755 | -96.95780 | 6197 ft | 227 kts | 272° |
| 2026-05-06 18:56 | 49.73727 | -96.98217 | 5942 ft | 227 kts | 271° |
| 2026-05-06 18:57 | 49.73691 | -97.00623 | 5751 ft | 220 kts | 271° |
| 2026-05-06 18:57 | 49.73654 | -97.02951 | 5373 ft | 221 kts | 271° |
| 2026-05-06 18:57 | 49.73617 | -97.05351 | 4919 ft | 225 kts | 271° |
| 2026-05-06 18:57 | 49.73576 | -97.07784 | 4517 ft | 227 kts | 271° |
| 2026-05-06 18:58 | 49.73534 | -97.10199 | 4282 ft | 222 kts | 270° |
| 2026-05-06 18:58 | 49.73493 | -97.12535 | 4141 ft | 213 kts | 271° |
| 2026-05-06 18:58 | 49.73488 | -97.14774 | 4030 ft | 204 kts | 276° |
| 2026-05-06 18:58 | 49.73666 | -97.16934 | 3778 ft | 203 kts | 281° |
| 2026-05-06 18:59 | 49.73905 | -97.19100 | 3470 ft | 205 kts | 282° |
| 2026-05-06 18:59 | 49.74152 | -97.21275 | 3220 ft | 205 kts | 282° |
| 2026-05-06 18:59 | 49.74394 | -97.23428 | 3022 ft | 203 kts | 282° |
| 2026-05-06 18:59 | 49.74794 | -97.25419 | 3002 ft | 185 kts | 307° |
| 2026-05-06 19:00 | 49.75817 | -97.26441 | 3021 ft | 176 kts | 339° |
| 2026-05-06 19:00 | 49.77018 | -97.26825 | 3006 ft | 177 kts | 351° |
| 2026-05-06 19:00 | 49.78234 | -97.26794 | 3000 ft | 174 kts | 3° |
| 2026-05-06 19:00 | 49.79025 | -97.26618 | 2997 ft | 173 kts | 4° |
| 2026-05-06 19:01 | 49.80595 | -97.26249 | 2725 ft | 167 kts | 4° |
| 2026-05-06 19:01 | 49.81350 | -97.26077 | 2564 ft | 164 kts | 4° |
| 2026-05-06 19:01 | 49.82444 | -97.25821 | 2326 ft | 153 kts | 4° |
| 2026-05-06 19:01 | 49.83442 | -97.25592 | 2122 ft | 138 kts | 5° |
| 2026-05-06 19:02 | 49.84339 | -97.25384 | 1949 ft | 124 kts | 4° |
| 2026-05-06 19:02 | 49.85186 | -97.25189 | 1760 ft | 122 kts | 2° |
| 2026-05-06 19:02 | 49.86026 | -97.24992 | 1568 ft | 123 kts | 5° |
| 2026-05-06 19:02 | 49.86868 | -97.24806 | 1336 ft | 122 kts | 4° |
| 2026-05-06 19:03 | 49.87712 | -97.24614 | 1173 ft | 121 kts | 5° |
| 2026-05-06 19:03 | 49.88523 | -97.24427 | 1029 ft | 117 kts | 5° |
| 2026-05-06 19:03 | 49.89318 | -97.24239 | 884 ft | 114 kts | 5° |
| 2026-05-06 19:03 | 49.90069 | -97.24065 | 789 ft | 100 kts | 7° |
| 2026-05-06 19:04 | 49.90578 | -97.23944 | 793 ft | 47 kts | 8° |
| 2026-05-06 19:04 | 49.90797 | -97.23800 | 792 ft | 29 kts | 65° |
| 2026-05-06 19:04 | 49.90830 | -97.23593 | 788 ft | 11 kts | 80° |
| 2026-05-06 19:04 | 49.90840 | -97.23508 | 787 ft | 7 kts | 79° |
| 2026-05-06 19:05 | 49.90849 | -97.23369 | 788 ft | 16 kts | 108° |
| 2026-05-06 19:05 | 49.90746 | -97.23274 | 787 ft | 22 kts | 167° |
| 2026-05-06 19:05 | 49.90606 | -97.23326 | 789 ft | 20 kts | 199° |
| 2026-05-06 19:05 | 49.90476 | -97.23393 | 790 ft | 20 kts | 198° |
| 2026-05-06 19:06 | 49.90356 | -97.23457 | 791 ft | 13 kts | 198° |
| 2026-05-06 19:06 | 49.90283 | -97.23421 | 794 ft | 16 kts | 139° |
| 2026-05-06 19:06 | 49.90180 | -97.23274 | 795 ft | 25 kts | 138° |
| 2026-05-06 19:06 | 49.90048 | -97.23095 | 794 ft | 24 kts | 139° |
| 2026-05-06 19:07 | 49.89920 | -97.22918 | 791 ft | 25 kts | 138° |
| 2026-05-06 19:07 | 49.89806 | -97.22718 | 791 ft | 25 kts | 129° |
| 2026-05-06 19:07 | 49.89706 | -97.22530 | 794 ft | 20 kts | 129° |
| 2026-05-06 19:07 | 49.89658 | -97.22385 | 794 ft | 15 kts | 92° |
| 2026-05-06 19:08 | 49.89653 | -97.22221 | 791 ft | 14 kts | 94° |
| 2026-05-06 19:08 | 49.89675 | -97.22139 | 789 ft | 6 kts | 17° |
| 2026-05-06 19:08 | 49.89695 | -97.22142 | 789 ft | 4 kts | 354° |
| 2026-05-06 19:08 | 49.89708 | -97.22141 | 789 ft | 0 kts | 1° |